セントジョンズ の空港の天気 - METARとTAF

セント・ジョンズ国際空港 ( CYYT / YYT ) - カナダ ニューファンドランド・ラブラドール州セントジョンズ
飛行場実況気象(Metar)
観測時間02/17 11:09 NST (02/17 14:39 UTC)
風向・風速西北西 8m/s
視程9650m
天気現象弱い雪
全天を覆う雲 雲底高度 370m
気温1℃
湿度93%
気圧999.1hPa
METARCYYT 171439Z 29016KT 6SM -SN OVC012 01/00 A2948 RMK SF8 SLP991
過去の天気等 Google飛行場航空写真 Wunderground天気予報

過去48時間のMETAR

飛行場予報(TAF)
発表時間: 2/17 08:09 NST (2/17 11:39 UTC)
予報対象時間: 17日8時 NST ~ 18日8時 NST
風向・風速西 6m/s 瞬間風速 11m/s
視程1610m
天気現象もや
全天を覆う雲 雲底高度 90m
17日8時 NST ~ 17日9時 NST に一時的に
視程10km以上
天気現象もや
全天の4割程度の雲 雲底高度 90m
全天を覆う雲 雲底高度 610m
17日9時 NST から
風向・風速西 10m/s 瞬間風速 15m/s
視程3220m
天気現象もや
全天の8割程度の雲 雲底高度 180m
17日9時 NST ~ 17日11時 NST に一時的に
視程10km以上
天気現象運行に影響にある天気現象が終了
全天の4割程度の雲 雲底高度 180m
全天の8割程度の雲 雲底高度 760m
17日11時 NST から
風向・風速西 10m/s 瞬間風速 15m/s
視程10km以上
全天の8割程度の雲 雲底高度 610m
17日11時 NST ~ 17日22時 NST に一時的に
全天の8割程度の雲 雲底高度 760m
17日22時 NST から
風向・風速西 8m/s 瞬間風速 13m/s
視程10km以上
少しの雲 雲底高度 760m
18日1時 NST ~ 18日3時 NST に徐々に
風向・風速西 9m/s 瞬間風速 14m/s
TAF CYYT 171139Z 1712/1812 27012G22KT 1SM BR OVC003
TEMPO 1712/1713 6SM BR SCT003 OVC020
FM171300 28020G30KT 2SM BR BKN006
TEMPO 1713/1715 P6SM NSW SCT006 BKN025
FM171500 27020G30KT P6SM BKN020
TEMPO 1715/1802 BKN025
FM180200 28015G25KT P6SM FEW025
BECMG 1805/1807 27018G28KT RMK NXT FCST BY 171800Z